sensor_id;sensor_type;location;lat;lon;timestamp;pressure;altitude;pressure_sealevel;temperature;humidity
53041;BME280;39326;42.650;23.248;2023-03-14T00:01:16;92706.78;;;1.17;54.68
53041;BME280;39326;42.650;23.248;2023-03-14T00:03:41;92709.72;;;1.16;53.76
53041;BME280;39326;42.650;23.248;2023-03-14T00:06:08;92710.69;;;1.11;54.59
53041;BME280;39326;42.650;23.248;2023-03-14T00:08:34;92701.84;;;1.16;54.55
53041;BME280;39326;42.650;23.248;2023-03-14T00:11:11;92703.13;;;1.10;54.81
53041;BME280;39326;42.650;23.248;2023-03-14T00:13:37;92699.84;;;0.92;54.92
53041;BME280;39326;42.650;23.248;2023-03-14T00:16:10;92694.75;;;0.87;55.52
53041;BME280;39326;42.650;23.248;2023-03-14T00:18:36;92692.72;;;0.93;53.91
53041;BME280;39326;42.650;23.248;2023-03-14T00:21:03;92687.81;;;0.91;55.03
53041;BME280;39326;42.650;23.248;2023-03-14T00:23:31;92678.84;;;0.92;55.23
53041;BME280;39326;42.650;23.248;2023-03-14T00:26:06;92674.84;;;0.86;55.70
53041;BME280;39326;42.650;23.248;2023-03-14T00:28:32;92667.03;;;0.77;55.80
53041;BME280;39326;42.650;23.248;2023-03-14T00:30:57;92667.75;;;0.86;55.37
53041;BME280;39326;42.650;23.248;2023-03-14T00:33:23;92664.97;;;0.83;55.42
53041;BME280;39326;42.650;23.248;2023-03-14T00:36:09;92671.97;;;0.79;57.14
53041;BME280;39326;42.650;23.248;2023-03-14T00:38:36;92654.88;;;0.73;56.66
53041;BME280;39326;42.650;23.248;2023-03-14T00:41:08;92655.38;;;0.66;56.47
53041;BME280;39326;42.650;23.248;2023-03-14T00:43:34;92663.50;;;0.73;56.58
53041;BME280;39326;42.650;23.248;2023-03-14T00:45:59;92654.81;;;0.81;56.30
53041;BME280;39326;42.650;23.248;2023-03-14T00:48:25;92650.22;;;0.78;56.50
53041;BME280;39326;42.650;23.248;2023-03-14T00:50:50;92655.31;;;0.75;57.05
53041;BME280;39326;42.650;23.248;2023-03-14T00:53:16;92649.66;;;0.64;57.01
53041;BME280;39326;42.650;23.248;2023-03-14T00:55:42;92646.81;;;0.48;57.65
53041;BME280;39326;42.650;23.248;2023-03-14T00:58:09;92649.28;;;0.53;58.06
53041;BME280;39326;42.650;23.248;2023-03-14T01:00:35;92650.75;;;0.63;57.51
53041;BME280;39326;42.650;23.248;2023-03-14T01:03:01;92644.63;;;0.59;57.71
53041;BME280;39326;42.650;23.248;2023-03-14T01:05:28;92640.13;;;0.59;57.65
53041;BME280;39326;42.650;23.248;2023-03-14T01:07:53;92647.41;;;0.54;57.82
53041;BME280;39326;42.650;23.248;2023-03-14T01:10:19;92649.47;;;0.40;58.65
53041;BME280;39326;42.650;23.248;2023-03-14T01:12:44;92641.97;;;0.29;58.96
53041;BME280;39326;42.650;23.248;2023-03-14T01:15:10;92638.28;;;0.30;58.57
53041;BME280;39326;42.650;23.248;2023-03-14T01:17:35;92641.44;;;0.45;57.93
53041;BME280;39326;42.650;23.248;2023-03-14T01:20:03;92622.28;;;0.53;58.13
53041;BME280;39326;42.650;23.248;2023-03-14T01:22:30;92631.50;;;0.59;58.37
53041;BME280;39326;42.650;23.248;2023-03-14T01:24:55;92616.53;;;0.59;57.78
53041;BME280;39326;42.650;23.248;2023-03-14T01:27:20;92628.28;;;0.53;58.02
53041;BME280;39326;42.650;23.248;2023-03-14T01:29:46;92627.22;;;0.46;58.96
53041;BME280;39326;42.650;23.248;2023-03-14T01:32:12;92614.66;;;0.30;59.08
53041;BME280;39326;42.650;23.248;2023-03-14T01:34:37;92612.22;;;0.25;58.97
53041;BME280;39326;42.650;23.248;2023-03-14T01:37:03;92615.84;;;0.42;58.51
53041;BME280;39326;42.650;23.248;2023-03-14T01:39:29;92609.94;;;0.45;57.99
53041;BME280;39326;42.650;23.248;2023-03-14T01:41:54;92604.38;;;0.46;58.28
53041;BME280;39326;42.650;23.248;2023-03-14T01:44:20;92606.25;;;0.46;57.97
53041;BME280;39326;42.650;23.248;2023-03-14T01:46:46;92603.06;;;0.40;57.71
53041;BME280;39326;42.650;23.248;2023-03-14T01:52:07;92605.75;;;0.23;59.07
53041;BME280;39326;42.650;23.248;2023-03-14T01:54:51;92596.50;;;0.25;58.94
53041;BME280;39326;42.650;23.248;2023-03-14T01:57:28;92597.56;;;0.24;58.56
53041;BME280;39326;42.650;23.248;2023-03-14T02:00:04;92598.53;;;0.20;58.84
53041;BME280;39326;42.650;23.248;2023-03-14T02:02:37;92599.66;;;0.10;59.39
53041;BME280;39326;42.650;23.248;2023-03-14T02:05:03;92592.09;;;0.08;59.26
53041;BME280;39326;42.650;23.248;2023-03-14T02:07:50;92583.94;;;0.10;59.63
53041;BME280;39326;42.650;23.248;2023-03-14T02:10:18;92592.50;;;0.19;58.79
53041;BME280;39326;42.650;23.248;2023-03-14T02:12:45;92589.47;;;0.08;59.10
53041;BME280;39326;42.650;23.248;2023-03-14T02:15:12;92581.56;;;0.17;58.88
53041;BME280;39326;42.650;23.248;2023-03-14T02:17:40;92590.38;;;0.13;58.93
53041;BME280;39326;42.650;23.248;2023-03-14T02:22:40;92591.25;;;0.25;59.16
53041;BME280;39326;42.650;23.248;2023-03-14T02:28:03;92580.63;;;0.22;59.16
53041;BME280;39326;42.650;23.248;2023-03-14T02:30:30;92588.63;;;0.25;58.72
53041;BME280;39326;42.650;23.248;2023-03-14T02:33:00;92592.66;;;0.23;58.95
53041;BME280;39326;42.650;23.248;2023-03-14T02:35:30;92594.03;;;0.20;58.99
53041;BME280;39326;42.650;23.248;2023-03-14T02:38:02;92595.44;;;0.18;58.96
53041;BME280;39326;42.650;23.248;2023-03-14T02:40:29;92595.78;;;0.07;59.41
53041;BME280;39326;42.650;23.248;2023-03-14T02:42:54;92603.88;;;0.02;59.40
53041;BME280;39326;42.650;23.248;2023-03-14T02:48:00;92580.28;;;-0.06;59.37
53041;BME280;39326;42.650;23.248;2023-03-14T02:50:30;92602.63;;;-0.00;60.03
53041;BME280;39326;42.650;23.248;2023-03-14T02:52:58;92595.41;;;-0.12;60.08
53041;BME280;39326;42.650;23.248;2023-03-14T02:55:24;92587.00;;;-0.26;59.87
53041;BME280;39326;42.650;23.248;2023-03-14T02:57:51;92583.63;;;-0.27;60.59
53041;BME280;39326;42.650;23.248;2023-03-14T03:00:17;92585.31;;;-0.22;60.28
53041;BME280;39326;42.650;23.248;2023-03-14T03:02:43;92589.59;;;-0.18;60.11
53041;BME280;39326;42.650;23.248;2023-03-14T03:05:08;92598.38;;;-0.13;60.11
53041;BME280;39326;42.650;23.248;2023-03-14T03:07:34;92595.41;;;-0.12;59.95
53041;BME280;39326;42.650;23.248;2023-03-14T03:09:59;92593.56;;;-0.11;59.56
53041;BME280;39326;42.650;23.248;2023-03-14T03:12:25;92583.56;;;-0.09;60.03
53041;BME280;39326;42.650;23.248;2023-03-14T03:14:50;92584.31;;;-0.09;60.11
53041;BME280;39326;42.650;23.248;2023-03-14T03:17:15;92587.50;;;0.05;60.14
53041;BME280;39326;42.650;23.248;2023-03-14T03:19:41;92583.47;;;0.08;60.12
53041;BME280;39326;42.650;23.248;2023-03-14T03:22:07;92589.28;;;0.14;59.47
53041;BME280;39326;42.650;23.248;2023-03-14T03:24:32;92574.38;;;0.05;59.55
53041;BME280;39326;42.650;23.248;2023-03-14T03:26:58;92587.06;;;-0.05;60.28
53041;BME280;39326;42.650;23.248;2023-03-14T03:29:23;92589.50;;;-0.00;60.27
53041;BME280;39326;42.650;23.248;2023-03-14T03:31:49;92584.22;;;0.08;60.09
53041;BME280;39326;42.650;23.248;2023-03-14T03:34:14;92583.94;;;0.10;59.69
53041;BME280;39326;42.650;23.248;2023-03-14T03:36:40;92581.34;;;0.01;59.89
53041;BME280;39326;42.650;23.248;2023-03-14T03:39:05;92580.84;;;0.08;59.19
53041;BME280;39326;42.650;23.248;2023-03-14T03:41:31;92578.03;;;0.13;59.13
53041;BME280;39326;42.650;23.248;2023-03-14T03:43:57;92581.44;;;0.14;58.98
53041;BME280;39326;42.650;23.248;2023-03-14T03:46:23;92588.19;;;0.15;58.83
53041;BME280;39326;42.650;23.248;2023-03-14T03:48:55;92590.25;;;0.09;59.08
53041;BME280;39326;42.650;23.248;2023-03-14T03:51:20;92604.25;;;0.13;59.12
53041;BME280;39326;42.650;23.248;2023-03-14T03:53:45;92598.69;;;0.15;59.41
53041;BME280;39326;42.650;23.248;2023-03-14T03:56:11;92595.41;;;-0.03;59.31
53041;BME280;39326;42.650;23.248;2023-03-14T03:58:36;92587.56;;;-0.12;59.68
53041;BME280;39326;42.650;23.248;2023-03-14T04:01:05;92593.56;;;-0.11;59.69
53041;BME280;39326;42.650;23.248;2023-03-14T04:03:31;92584.66;;;-0.19;60.07
53041;BME280;39326;42.650;23.248;2023-03-14T04:06:09;92583.13;;;-0.20;60.58
53041;BME280;39326;42.650;23.248;2023-03-14T04:08:36;92583.22;;;-0.08;59.85
53041;BME280;39326;42.650;23.248;2023-03-14T04:11:02;92595.41;;;-0.12;59.84
53041;BME280;39326;42.650;23.248;2023-03-14T04:13:27;92583.56;;;-0.09;60.30
53041;BME280;39326;42.650;23.248;2023-03-14T04:15:54;92594.03;;;-0.09;60.30
53041;BME280;39326;42.650;23.248;2023-03-14T04:18:20;92584.34;;;-0.18;60.63
53041;BME280;39326;42.650;23.248;2023-03-14T04:20:50;92572.22;;;-0.31;60.92
53041;BME280;39326;42.650;23.248;2023-03-14T04:23:16;92572.53;;;-0.32;60.98
53041;BME280;39326;42.650;23.248;2023-03-14T04:25:41;92571.44;;;-0.31;61.19
53041;BME280;39326;42.650;23.248;2023-03-14T04:28:07;92566.09;;;-0.35;61.01
53041;BME280;39326;42.650;23.248;2023-03-14T04:30:32;92557.00;;;-0.37;60.79
53041;BME280;39326;42.650;23.248;2023-03-14T04:32:58;92562.69;;;-0.35;61.29
53041;BME280;39326;42.650;23.248;2023-03-14T04:35:23;92559.44;;;-0.32;61.20
53041;BME280;39326;42.650;23.248;2023-03-14T04:37:49;92555.41;;;-0.21;61.00
53041;BME280;39326;42.650;23.248;2023-03-14T04:40:15;92555.25;;;-0.25;60.65
53041;BME280;39326;42.650;23.248;2023-03-14T04:42:41;92545.41;;;-0.28;60.92
53041;BME280;39326;42.650;23.248;2023-03-14T04:45:07;92549.56;;;-0.27;60.76
53041;BME280;39326;42.650;23.248;2023-03-14T04:47:33;92539.66;;;-0.21;60.79
53041;BME280;39326;42.650;23.248;2023-03-14T04:49:58;92543.13;;;-0.38;61.72
53041;BME280;39326;42.650;23.248;2023-03-14T04:52:24;92536.97;;;-0.42;61.93
53041;BME280;39326;42.650;23.248;2023-03-14T04:54:49;92532.91;;;-0.31;61.50
53041;BME280;39326;42.650;23.248;2023-03-14T04:57:15;92529.81;;;-0.24;61.12
53041;BME280;39326;42.650;23.248;2023-03-14T04:59:40;92531.63;;;-0.16;61.04
53041;BME280;39326;42.650;23.248;2023-03-14T05:02:06;92537.94;;;-0.17;61.27
53041;BME280;39326;42.650;23.248;2023-03-14T05:04:31;92540.13;;;-0.19;60.94
53041;BME280;39326;42.650;23.248;2023-03-14T05:06:59;92536.72;;;-0.20;61.53
53041;BME280;39326;42.650;23.248;2023-03-14T05:09:25;92536.28;;;-0.22;61.75
53041;BME280;39326;42.650;23.248;2023-03-14T05:11:50;92534.75;;;-0.23;61.71
53041;BME280;39326;42.650;23.248;2023-03-14T05:14:15;92542.13;;;-0.16;61.56
53041;BME280;39326;42.650;23.248;2023-03-14T05:16:41;92534.97;;;-0.07;61.53
53041;BME280;39326;42.650;23.248;2023-03-14T05:19:10;92532.44;;;0.05;61.75
53041;BME280;39326;42.650;23.248;2023-03-14T05:21:35;92535.47;;;0.16;60.59
53041;BME280;39326;42.650;23.248;2023-03-14T05:24:00;92534.56;;;0.12;61.39
53041;BME280;39326;42.650;23.248;2023-03-14T05:26:26;92535.59;;;0.20;61.27
53041;BME280;39326;42.650;23.248;2023-03-14T05:28:51;92527.44;;;0.21;60.88
53041;BME280;39326;42.650;23.248;2023-03-14T05:31:16;92535.81;;;0.35;61.10
53041;BME280;39326;42.650;23.248;2023-03-14T05:33:42;92528.06;;;0.39;60.50
53041;BME280;39326;42.650;23.248;2023-03-14T05:36:08;92532.78;;;0.46;60.72
53041;BME280;39326;42.650;23.248;2023-03-14T05:38:33;92520.78;;;0.45;60.44
53041;BME280;39326;42.650;23.248;2023-03-14T05:40:59;92532.41;;;0.56;60.11
53041;BME280;39326;42.650;23.248;2023-03-14T05:43:24;92533.91;;;0.66;59.23
53041;BME280;39326;42.650;23.248;2023-03-14T05:45:49;92539.16;;;0.66;59.40
53041;BME280;39326;42.650;23.248;2023-03-14T05:48:15;92536.56;;;0.57;59.63
53041;BME280;39326;42.650;23.248;2023-03-14T05:50:42;92530.44;;;0.74;59.28
53041;BME280;39326;42.650;23.248;2023-03-14T05:53:07;92528.13;;;0.72;58.49
53041;BME280;39326;42.650;23.248;2023-03-14T05:55:33;92530.41;;;0.95;58.80
53041;BME280;39326;42.650;23.248;2023-03-14T05:57:58;92536.38;;;0.83;58.88
53041;BME280;39326;42.650;23.248;2023-03-14T06:00:23;92537.91;;;1.05;58.21
53041;BME280;39326;42.650;23.248;2023-03-14T06:02:49;92532.63;;;1.05;59.12
53041;BME280;39326;42.650;23.248;2023-03-14T06:05:14;92536.84;;;1.18;57.92
53041;BME280;39326;42.650;23.248;2023-03-14T06:07:40;92534.00;;;1.23;58.49
53041;BME280;39326;42.650;23.248;2023-03-14T06:10:06;92523.66;;;1.06;59.51
53041;BME280;39326;42.650;23.248;2023-03-14T06:12:32;92529.81;;;1.10;60.09
53041;BME280;39326;42.650;23.248;2023-03-14T06:14:57;92526.19;;;1.14;59.56
53041;BME280;39326;42.650;23.248;2023-03-14T06:17:22;92522.09;;;1.26;59.29
53041;BME280;39326;42.650;23.248;2023-03-14T06:19:48;92535.41;;;1.21;59.85
53041;BME280;39326;42.650;23.248;2023-03-14T06:22:13;92531.91;;;1.16;59.90
53041;BME280;39326;42.650;23.248;2023-03-14T06:24:39;92536.75;;;1.27;59.57
53041;BME280;39326;42.650;23.248;2023-03-14T06:27:04;92540.38;;;1.01;61.53
53041;BME280;39326;42.650;23.248;2023-03-14T06:29:30;92542.00;;;1.27;60.08
53041;BME280;39326;42.650;23.248;2023-03-14T06:31:56;92546.69;;;1.21;60.58
53041;BME280;39326;42.650;23.248;2023-03-14T06:34:21;92543.81;;;1.47;59.14
53041;BME280;39326;42.650;23.248;2023-03-14T06:36:47;92542.06;;;1.63;59.37
53041;BME280;39326;42.650;23.248;2023-03-14T06:39:12;92536.41;;;1.74;58.93
53041;BME280;39326;42.650;23.248;2023-03-14T06:41:38;92529.50;;;1.69;59.32
53041;BME280;39326;42.650;23.248;2023-03-14T06:44:04;92523.47;;;1.81;58.29
53041;BME280;39326;42.650;23.248;2023-03-14T06:46:29;92523.81;;;1.79;59.67
53041;BME280;39326;42.650;23.248;2023-03-14T06:48:55;92520.09;;;1.80;58.65
53041;BME280;39326;42.650;23.248;2023-03-14T06:51:20;92516.78;;;1.95;58.43
53041;BME280;39326;42.650;23.248;2023-03-14T06:53:46;92514.84;;;2.05;58.48
53041;BME280;39326;42.650;23.248;2023-03-14T06:56:11;92509.66;;;1.96;58.32
53041;BME280;39326;42.650;23.248;2023-03-14T06:58:36;92509.56;;;2.05;58.72
53041;BME280;39326;42.650;23.248;2023-03-14T07:01:02;92501.44;;;2.22;58.23
53041;BME280;39326;42.650;23.248;2023-03-14T07:03:28;92505.25;;;2.37;57.97
53041;BME280;39326;42.650;23.248;2023-03-14T07:05:53;92498.00;;;2.46;57.54
53041;BME280;39326;42.650;23.248;2023-03-14T07:08:19;92498.88;;;2.50;57.39
53041;BME280;39326;42.650;23.248;2023-03-14T07:10:44;92497.97;;;2.58;57.62
53041;BME280;39326;42.650;23.248;2023-03-14T07:13:10;92498.03;;;2.74;57.00
53041;BME280;39326;42.650;23.248;2023-03-14T07:15:35;92496.28;;;2.66;56.80
53041;BME280;39326;42.650;23.248;2023-03-14T07:18:00;92510.56;;;2.65;56.44
53041;BME280;39326;42.650;23.248;2023-03-14T07:20:26;92509.63;;;2.85;56.59
53041;BME280;39326;42.650;23.248;2023-03-14T07:22:51;92510.19;;;3.06;56.15
53041;BME280;39326;42.650;23.248;2023-03-14T07:25:17;92501.13;;;3.20;55.68
53041;BME280;39326;42.650;23.248;2023-03-14T07:27:44;92508.44;;;3.26;54.73
53041;BME280;39326;42.650;23.248;2023-03-14T07:30:10;92502.22;;;3.19;54.55
53041;BME280;39326;42.650;23.248;2023-03-14T07:32:36;92500.41;;;3.07;55.36
53041;BME280;39326;42.650;23.248;2023-03-14T07:35:01;92494.03;;;3.08;54.92
53041;BME280;39326;42.650;23.248;2023-03-14T07:37:26;92494.50;;;3.26;54.94
53041;BME280;39326;42.650;23.248;2023-03-14T07:39:52;92486.94;;;3.24;53.79
53041;BME280;39326;42.650;23.248;2023-03-14T07:42:17;92482.72;;;3.51;53.59
53041;BME280;39326;42.650;23.248;2023-03-14T07:44:43;92484.56;;;3.67;53.61
53041;BME280;39326;42.650;23.248;2023-03-14T07:47:08;92481.69;;;4.19;53.81
53041;BME280;39326;42.650;23.248;2023-03-14T07:49:35;92486.31;;;4.61;53.25
53041;BME280;39326;42.650;23.248;2023-03-14T07:52:01;92491.63;;;5.00;53.18
53041;BME280;39326;42.650;23.248;2023-03-14T07:54:26;92491.31;;;5.43;51.71
53041;BME280;39326;42.650;23.248;2023-03-14T07:56:52;92484.19;;;5.70;51.39
53041;BME280;39326;42.650;23.248;2023-03-14T07:59:18;92486.53;;;5.53;50.76
53041;BME280;39326;42.650;23.248;2023-03-14T08:01:43;92474.38;;;5.71;50.51
53041;BME280;39326;42.650;23.248;2023-03-14T08:04:09;92482.38;;;5.74;50.27
53041;BME280;39326;42.650;23.248;2023-03-14T08:06:35;92477.31;;;6.15;49.66
53041;BME280;39326;42.650;23.248;2023-03-14T08:09:02;92470.13;;;6.42;49.46
53041;BME280;39326;42.650;23.248;2023-03-14T08:11:27;92480.34;;;6.14;48.81
53041;BME280;39326;42.650;23.248;2023-03-14T10:38:34;92258.78;;;13.59;34.65
53041;BME280;39326;42.650;23.248;2023-03-14T10:41:01;92242.34;;;13.80;33.81
53041;BME280;39326;42.650;23.248;2023-03-14T10:43:33;92242.94;;;13.92;33.05
53041;BME280;39326;42.650;23.248;2023-03-14T10:46:11;92236.66;;;13.55;33.61
53041;BME280;39326;42.650;23.248;2023-03-14T10:48:38;92229.22;;;13.43;34.43
53041;BME280;39326;42.650;23.248;2023-03-14T10:53:47;92216.34;;;13.77;33.87
53041;BME280;39326;42.650;23.248;2023-03-14T10:56:16;92214.31;;;13.42;34.12
53041;BME280;39326;42.650;23.248;2023-03-14T10:58:44;92210.22;;;13.34;34.89
53041;BME280;39326;42.650;23.248;2023-03-14T11:01:28;92202.56;;;13.09;33.61
53041;BME280;39326;42.650;23.248;2023-03-14T11:07:16;92188.56;;;13.24;34.25
53041;BME280;39326;42.650;23.248;2023-03-14T11:09:58;92190.53;;;13.20;34.44
53041;BME280;39326;42.650;23.248;2023-03-14T11:15:05;92174.47;;;13.87;33.95
53041;BME280;39326;42.650;23.248;2023-03-14T11:17:40;92172.03;;;13.73;32.88
53041;BME280;39326;42.650;23.248;2023-03-14T11:23:27;92157.22;;;13.88;33.67
53041;BME280;39326;42.650;23.248;2023-03-14T11:26:01;92143.75;;;14.28;33.16
53041;BME280;39326;42.650;23.248;2023-03-14T11:28:38;92142.34;;;14.03;33.64
53041;BME280;39326;42.650;23.248;2023-03-14T11:31:16;92140.28;;;14.11;32.44
53041;BME280;39326;42.650;23.248;2023-03-14T11:36:20;92127.66;;;14.28;33.21
53041;BME280;39326;42.650;23.248;2023-03-14T11:38:58;92131.34;;;14.70;33.07
53041;BME280;39326;42.650;23.248;2023-03-14T11:41:29;92121.44;;;14.83;32.36
53041;BME280;39326;42.650;23.248;2023-03-14T11:43:57;92109.81;;;15.06;31.87
53041;BME280;39326;42.650;23.248;2023-03-14T11:51:38;92109.47;;;14.88;32.21
53041;BME280;39326;42.650;23.248;2023-03-14T11:56:46;92098.72;;;14.88;32.20
53041;BME280;39326;42.650;23.248;2023-03-14T11:59:23;92094.88;;;15.05;32.74
53041;BME280;39326;42.650;23.248;2023-03-14T12:01:57;92083.84;;;15.16;32.51
53041;BME280;39326;42.650;23.248;2023-03-14T12:07:17;92069.50;;;15.52;31.89
53041;BME280;39326;42.650;23.248;2023-03-14T12:09:45;92061.59;;;15.73;31.83
53041;BME280;39326;42.650;23.248;2023-03-14T12:12:16;92062.16;;;15.81;31.49
53041;BME280;39326;42.650;23.248;2023-03-14T12:14:58;92059.00;;;15.99;31.78
53041;BME280;39326;42.650;23.248;2023-03-14T12:17:36;92060.28;;;16.07;31.57
53041;BME280;39326;42.650;23.248;2023-03-14T12:20:06;92050.94;;;15.70;31.38
53041;BME280;39326;42.650;23.248;2023-03-14T12:23:02;92049.44;;;15.69;31.31
53041;BME280;39326;42.650;23.248;2023-03-14T12:25:33;92044.91;;;15.66;31.68
53041;BME280;39326;42.650;23.248;2023-03-14T12:30:40;92037.34;;;15.61;31.91
53041;BME280;39326;42.650;23.248;2023-03-14T12:35:48;92026.75;;;15.70;31.72
53041;BME280;39326;42.650;23.248;2023-03-14T12:43:31;92013.59;;;16.14;30.94
53041;BME280;39326;42.650;23.248;2023-03-14T12:48:45;92005.41;;;16.43;30.66
53041;BME280;39326;42.650;23.248;2023-03-14T12:51:16;91985.84;;;16.64;30.42
53041;BME280;39326;42.650;23.248;2023-03-14T12:54:00;91996.38;;;16.37;30.70
53041;BME280;39326;42.650;23.248;2023-03-14T12:59:39;91981.94;;;16.78;29.30
53041;BME280;39326;42.650;23.248;2023-03-14T13:05:17;91977.66;;;16.68;29.07
53041;BME280;39326;42.650;23.248;2023-03-14T13:13:01;91966.78;;;16.71;29.47
53041;BME280;39326;42.650;23.248;2023-03-14T13:15:33;91965.22;;;16.96;29.37
53041;BME280;39326;42.650;23.248;2023-03-14T13:18:02;91959.94;;;16.79;29.14
53041;BME280;39326;42.650;23.248;2023-03-14T13:20:31;91941.97;;;17.11;28.81
53041;BME280;39326;42.650;23.248;2023-03-14T13:22:57;91947.81;;;17.10;29.21
53041;BME280;39326;42.650;23.248;2023-03-14T13:25:23;91937.78;;;16.88;29.40
53041;BME280;39326;42.650;23.248;2023-03-14T13:27:52;91938.16;;;16.99;28.97
53041;BME280;39326;42.650;23.248;2023-03-14T13:30:35;91925.44;;;16.65;28.68
53041;BME280;39326;42.650;23.248;2023-03-14T13:33:04;91925.75;;;16.67;28.69
53041;BME280;39326;42.650;23.248;2023-03-14T13:35:39;91923.41;;;16.91;28.57
53041;BME280;39326;42.650;23.248;2023-03-14T13:38:15;91919.16;;;17.03;28.28
53041;BME280;39326;42.650;23.248;2023-03-14T13:40:43;91909.66;;;16.89;28.85
53041;BME280;39326;42.650;23.248;2023-03-14T13:43:27;91908.22;;;16.63;29.29
53041;BME280;39326;42.650;23.248;2023-03-14T13:46:06;91903.06;;;16.90;28.14
53041;BME280;39326;42.650;23.248;2023-03-14T13:48:43;91897.19;;;16.70;28.59
53041;BME280;39326;42.650;23.248;2023-03-14T13:51:12;91891.31;;;16.84;28.40
53041;BME280;39326;42.650;23.248;2023-03-14T13:53:49;91886.28;;;16.73;28.01
53041;BME280;39326;42.650;23.248;2023-03-14T13:56:17;91875.53;;;16.73;27.96
53041;BME280;39326;42.650;23.248;2023-03-14T13:58:44;91874.03;;;16.72;28.38
53041;BME280;39326;42.650;23.248;2023-03-14T14:01:23;91868.38;;;16.58;28.86
53041;BME280;39326;42.650;23.248;2023-03-14T14:03:53;91865.19;;;16.50;28.88
53041;BME280;39326;42.650;23.248;2023-03-14T14:06:31;91865.25;;;16.59;28.39
53041;BME280;39326;42.650;23.248;2023-03-14T14:09:00;91859.91;;;16.46;29.37
53041;BME280;39326;42.650;23.248;2023-03-14T14:13:58;91848.97;;;16.06;29.22
53041;BME280;39326;42.650;23.248;2023-03-14T14:16:25;91845.34;;;16.22;28.85
53041;BME280;39326;42.650;23.248;2023-03-14T14:18:55;91834.78;;;16.28;28.98
53041;BME280;39326;42.650;23.248;2023-03-14T14:21:22;91832.03;;;16.18;29.08
53041;BME280;39326;42.650;23.248;2023-03-14T14:23:48;91820.47;;;16.31;29.19
53041;BME280;39326;42.650;23.248;2023-03-14T14:26:18;91823.16;;;16.31;29.08
53041;BME280;39326;42.650;23.248;2023-03-14T14:28:44;91813.09;;;16.44;28.90
53041;BME280;39326;42.650;23.248;2023-03-14T14:33:44;91807.78;;;16.31;28.12
53041;BME280;39326;42.650;23.248;2023-03-14T14:36:25;91813.34;;;16.37;28.49
53041;BME280;39326;42.650;23.248;2023-03-14T14:41:40;91799.84;;;16.15;28.90
53041;BME280;39326;42.650;23.248;2023-03-14T14:44:07;91796.25;;;15.96;28.96
53041;BME280;39326;42.650;23.248;2023-03-14T14:46:35;91790.63;;;15.56;28.83
53041;BME280;39326;42.650;23.248;2023-03-14T14:49:17;91784.16;;;15.53;29.03
53041;BME280;39326;42.650;23.248;2023-03-14T14:51:48;91786.31;;;15.45;29.41
53041;BME280;39326;42.650;23.248;2023-03-14T14:54:19;91784.84;;;15.32;29.03
53041;BME280;39326;42.650;23.248;2023-03-14T14:56:50;91784.72;;;15.23;29.21
53041;BME280;39326;42.650;23.248;2023-03-14T14:59:26;91778.81;;;15.15;28.53
53041;BME280;39326;42.650;23.248;2023-03-14T15:01:59;91775.81;;;15.13;29.02
53041;BME280;39326;42.650;23.248;2023-03-14T15:04:25;91774.31;;;14.99;29.36
53041;BME280;39326;42.650;23.248;2023-03-14T15:06:52;91768.97;;;14.70;30.15
53041;BME280;39326;42.650;23.248;2023-03-14T15:09:19;91771.66;;;14.70;30.20
53041;BME280;39326;42.650;23.248;2023-03-14T15:11:45;91774.00;;;14.55;30.17
53041;BME280;39326;42.650;23.248;2023-03-14T15:14:11;91754.78;;;14.44;30.42
53041;BME280;39326;42.650;23.248;2023-03-14T15:16:36;91754.66;;;14.48;29.81
53041;BME280;39326;42.650;23.248;2023-03-14T15:19:11;91755.84;;;14.47;30.01
53041;BME280;39326;42.650;23.248;2023-03-14T15:21:37;91747.75;;;14.34;30.85
53041;BME280;39326;42.650;23.248;2023-03-14T15:24:04;91740.59;;;14.31;30.90
53041;BME280;39326;42.650;23.248;2023-03-14T15:26:30;91743.22;;;14.18;31.19
53041;BME280;39326;42.650;23.248;2023-03-14T15:28:55;91744.81;;;14.16;31.00
53041;BME280;39326;42.650;23.248;2023-03-14T15:31:21;91739.16;;;13.97;31.06
53041;BME280;39326;42.650;23.248;2023-03-14T15:33:47;91745.16;;;13.72;31.76
53041;BME280;39326;42.650;23.248;2023-03-14T15:38:44;91738.66;;;13.57;31.77
53041;BME280;39326;42.650;23.248;2023-03-14T15:41:09;91736.47;;;13.52;31.85
53041;BME280;39326;42.650;23.248;2023-03-14T15:43:35;91729.13;;;13.40;32.21
53041;BME280;39326;42.650;23.248;2023-03-14T15:46:00;91729.13;;;13.40;32.35
53041;BME280;39326;42.650;23.248;2023-03-14T15:48:25;91726.19;;;13.34;32.33
53041;BME280;39326;42.650;23.248;2023-03-14T15:50:51;91733.22;;;13.28;32.41
53041;BME280;39326;42.650;23.248;2023-03-14T15:53:16;91731.16;;;13.19;32.51
53041;BME280;39326;42.650;23.248;2023-03-14T15:55:42;91735.19;;;13.11;32.73
53041;BME280;39326;42.650;23.248;2023-03-14T15:58:15;91729.81;;;12.95;32.82
53041;BME280;39326;42.650;23.248;2023-03-14T16:00:41;91727.34;;;12.84;33.47
53041;BME280;39326;42.650;23.248;2023-03-14T16:03:07;91728.63;;;12.80;33.25
53041;BME280;39326;42.650;23.248;2023-03-14T16:05:32;91719.22;;;12.71;33.50
53041;BME280;39326;42.650;23.248;2023-03-14T16:07:58;91728.72;;;12.56;34.12
53041;BME280;39326;42.650;23.248;2023-03-14T16:10:23;91729.34;;;12.44;34.33
53041;BME280;39326;42.650;23.248;2023-03-14T16:12:49;91724.50;;;12.19;34.76
53041;BME280;39326;42.650;23.248;2023-03-14T16:15:14;91724.72;;;12.08;35.04
53041;BME280;39326;42.650;23.248;2023-03-14T16:17:39;91722.94;;;12.02;35.90
53041;BME280;39326;42.650;23.248;2023-03-14T16:20:08;91726.66;;;11.88;36.27
53041;BME280;39326;42.650;23.248;2023-03-14T16:22:34;91731.84;;;11.75;36.26
53041;BME280;39326;42.650;23.248;2023-03-14T16:25:03;91737.84;;;11.59;37.03
53041;BME280;39326;42.650;23.248;2023-03-14T16:27:29;91741.47;;;11.49;37.06
53041;BME280;39326;42.650;23.248;2023-03-14T16:29:56;91740.16;;;11.34;38.06
53041;BME280;39326;42.650;23.248;2023-03-14T16:32:21;91744.78;;;11.06;38.14
53041;BME280;39326;42.650;23.248;2023-03-14T16:34:47;91735.34;;;10.75;38.37